createdAt,value
2022-10-09T00:01:24.606Z,17.10
2022-10-09T00:03:54.190Z,16.48
2022-10-09T00:06:23.573Z,13.23
2022-10-09T00:11:25.764Z,13.53
2022-10-09T00:13:53.759Z,13.67
2022-10-09T00:16:21.885Z,13.90
2022-10-09T00:18:49.218Z,12.23
2022-10-09T00:21:23.619Z,12.17
2022-10-09T00:23:52.075Z,15.13
2022-10-09T00:26:19.626Z,14.83
2022-10-09T00:28:47.239Z,14.27
2022-10-09T00:31:15.315Z,13.87
2022-10-09T00:33:42.350Z,14.70
2022-10-09T00:36:15.529Z,11.33
2022-10-09T00:38:42.548Z,10.90
2022-10-09T00:41:22.062Z,11.47
2022-10-09T00:43:56.622Z,9.23
2022-10-09T00:46:48.259Z,10.20
2022-10-09T00:49:28.283Z,10.40
2022-10-09T00:51:57.904Z,10.30
2022-10-09T00:54:29.907Z,9.30
2022-10-09T00:56:56.923Z,8.10
2022-10-09T00:59:25.222Z,8.70
2022-10-09T01:01:52.746Z,8.50
2022-10-09T01:04:19.776Z,8.93
2022-10-09T01:07:11.524Z,8.70
2022-10-09T01:09:50.760Z,7.60
2022-10-09T01:12:46.539Z,7.82
2022-10-09T01:15:24.559Z,8.07
2022-10-09T01:18:15.759Z,7.57
2022-10-09T01:20:56.690Z,7.63
2022-10-09T01:23:35.131Z,8.37
2022-10-09T01:26:17.169Z,7.67
2022-10-09T01:28:48.148Z,8.10
2022-10-09T01:31:18.332Z,8.47
2022-10-09T01:33:46.614Z,8.30
2022-10-09T01:36:16.534Z,8.80
2022-10-09T01:38:45.146Z,7.87
2022-10-09T01:41:11.989Z,8.98
2022-10-09T01:43:38.752Z,9.73
2022-10-09T01:46:27.414Z,9.40
2022-10-09T01:49:08.697Z,8.70
2022-10-09T01:51:44.916Z,9.97
2022-10-09T01:54:14.627Z,11.63
2022-10-09T01:56:44.523Z,10.40
2022-10-09T01:59:18.864Z,9.57
2022-10-09T02:01:47.603Z,10.60
2022-10-09T02:04:19.812Z,9.75
2022-10-09T02:06:49.150Z,9.77
2022-10-09T02:09:33.489Z,10.90
2022-10-09T02:12:07.366Z,10.33
2022-10-09T02:14:35.667Z,10.33
2022-10-09T02:17:12.363Z,9.53
2022-10-09T02:19:46.506Z,9.63
2022-10-09T02:22:21.007Z,9.43
2022-10-09T02:24:48.490Z,11.17
2022-10-09T02:27:16.511Z,11.63
2022-10-09T02:29:45.300Z,10.23
2022-10-09T02:32:12.904Z,11.25
2022-10-09T02:34:40.164Z,12.00
2022-10-09T02:37:08.236Z,13.40
2022-10-09T02:39:35.409Z,14.93
2022-10-09T02:42:02.717Z,12.40
2022-10-09T02:44:29.563Z,13.17
2022-10-09T02:46:56.449Z,11.77
2022-10-09T02:49:23.241Z,12.80
2022-10-09T02:51:50.107Z,12.87
2022-10-09T02:54:17.124Z,14.47
2022-10-09T02:56:44.070Z,14.20
2022-10-09T02:59:10.946Z,11.67
2022-10-09T03:01:37.900Z,12.60
2022-10-09T03:04:05.162Z,12.93
2022-10-09T03:06:32.739Z,11.93
2022-10-09T03:08:59.575Z,12.20
2022-10-09T03:11:26.589Z,12.70
2022-10-09T03:13:54.660Z,12.33
2022-10-09T03:16:24.544Z,13.57
2022-10-09T03:18:53.022Z,11.93
2022-10-09T03:21:25.311Z,12.47
2022-10-09T03:23:53.598Z,11.80
2022-10-09T03:26:23.230Z,12.13
2022-10-09T03:28:52.055Z,12.03
2022-10-09T03:31:50.454Z,8.88
2022-10-09T03:34:07.639Z,11.15
2022-10-09T03:36:34.411Z,11.60
2022-10-09T03:39:01.243Z,11.90
2022-10-09T03:41:28.031Z,11.97
2022-10-09T03:43:54.789Z,11.70
2022-10-09T03:46:21.709Z,11.80
2022-10-09T03:48:48.574Z,12.80
2022-10-09T03:51:15.434Z,11.03
2022-10-09T03:53:42.238Z,11.67
2022-10-09T03:56:09.004Z,10.47
2022-10-09T03:58:35.803Z,11.00
2022-10-09T04:01:02.741Z,10.60
2022-10-09T04:03:29.714Z,10.70
2022-10-09T04:05:56.593Z,10.43
2022-10-09T04:08:23.430Z,10.67
2022-10-09T04:10:59.860Z,10.07
2022-10-09T04:13:27.031Z,10.90
2022-10-09T04:15:54.889Z,10.63
2022-10-09T04:18:22.440Z,11.63
2022-10-09T04:20:51.389Z,12.30
2022-10-09T04:23:19.451Z,11.38
2022-10-09T04:25:47.036Z,14.00
2022-10-09T04:28:13.988Z,20.13
2022-10-09T04:30:41.302Z,14.63
2022-10-09T04:33:12.681Z,11.20
2022-10-09T04:35:44.562Z,13.30
2022-10-09T04:38:12.163Z,12.43
2022-10-09T04:40:39.053Z,14.43
2022-10-09T04:43:05.830Z,14.20
2022-10-09T04:45:33.268Z,12.43
2022-10-09T04:48:00.733Z,12.57
2022-10-09T04:50:27.672Z,12.70
2022-10-09T04:53:01.280Z,11.80
2022-10-09T04:55:31.638Z,10.97
2022-10-09T04:57:58.408Z,11.40
2022-10-09T05:00:25.624Z,14.93
2022-10-09T05:02:52.594Z,13.97
2022-10-09T05:05:19.431Z,16.23
2022-10-09T05:07:46.558Z,14.97
2022-10-09T05:10:13.421Z,14.77
2022-10-09T05:12:40.297Z,14.33
2022-10-09T05:15:07.922Z,15.07
2022-10-09T05:17:34.885Z,14.60
2022-10-09T05:20:01.900Z,16.20
2022-10-09T05:22:31.999Z,16.70
2022-10-09T05:24:58.900Z,15.67
2022-10-09T05:27:25.689Z,14.80
2022-10-09T05:29:52.494Z,15.63
2022-10-09T05:32:19.331Z,15.60
2022-10-09T05:34:46.113Z,15.67
2022-10-09T05:37:12.935Z,17.67
2022-10-09T05:39:39.743Z,18.33
2022-10-09T05:42:06.883Z,19.30
2022-10-09T05:44:33.665Z,20.00
2022-10-09T05:47:00.468Z,18.73
2022-10-09T05:49:27.306Z,16.63
2022-10-09T05:51:56.219Z,13.80
2022-10-09T05:54:23.374Z,13.40
2022-10-09T05:56:50.327Z,12.17
2022-10-09T05:59:20.098Z,12.10
2022-10-09T06:01:50.330Z,12.60
2022-10-09T06:04:25.152Z,11.43
2022-10-09T06:06:52.218Z,11.50
2022-10-09T06:09:25.630Z,9.32
2022-10-09T06:11:53.949Z,12.32
2022-10-09T06:14:25.181Z,12.98
2022-10-09T06:16:52.148Z,13.63
2022-10-09T06:19:20.304Z,11.93
2022-10-09T06:21:48.036Z,12.52
2022-10-09T06:24:28.761Z,14.32
2022-10-09T06:26:57.216Z,14.27
2022-10-09T06:29:24.121Z,12.68
2022-10-09T06:31:51.012Z,13.35
2022-10-09T06:34:17.953Z,12.20
2022-10-09T06:36:45.186Z,12.68
2022-10-09T06:39:11.998Z,12.43
2022-10-09T06:41:38.884Z,12.23
2022-10-09T06:44:24.355Z,10.82
2022-10-09T06:46:52.731Z,10.73
2022-10-09T06:49:20.497Z,12.80
2022-10-09T06:51:47.524Z,11.52
2022-10-09T06:54:17.547Z,11.75
2022-10-09T06:56:46.176Z,11.35
2022-10-09T06:59:13.033Z,11.55
2022-10-09T07:01:40.169Z,11.27
2022-10-09T07:04:14.556Z,10.88
2022-10-09T07:06:44.250Z,11.68
2022-10-09T07:09:13.933Z,11.82
2022-10-09T07:11:45.245Z,11.55
2022-10-09T07:14:14.413Z,11.77
2022-10-09T07:16:45.287Z,12.27
2022-10-09T07:19:13.574Z,12.05
2022-10-09T07:21:43.139Z,11.82
2022-10-09T07:24:11.188Z,12.60
2022-10-09T07:26:41.619Z,10.98
2022-10-09T07:29:10.137Z,11.40
2022-10-09T07:31:37.286Z,11.68
2022-10-09T07:34:04.345Z,11.27
2022-10-09T07:36:31.256Z,13.57
2022-10-09T07:38:58.724Z,12.43
2022-10-09T07:41:28.272Z,12.38
2022-10-09T07:43:55.552Z,12.43
2022-10-09T07:46:24.075Z,12.02
2022-10-09T07:48:51.349Z,11.82
2022-10-09T07:51:29.114Z,13.07
2022-10-09T07:53:57.462Z,12.02
2022-10-09T07:56:25.398Z,12.13
2022-10-09T07:58:57.968Z,11.98
2022-10-09T08:01:28.202Z,11.82
2022-10-09T08:03:56.489Z,12.30
2022-10-09T08:06:26.372Z,12.23
2022-10-09T08:08:55.311Z,11.93
2022-10-09T08:11:24.484Z,12.32
2022-10-09T08:16:20.800Z,10.93
2022-10-09T08:18:48.533Z,9.82
2022-10-09T08:21:18.757Z,6.57
2022-10-09T08:23:46.031Z,5.30
2022-10-09T08:26:19.249Z,5.60
2022-10-09T08:28:58.019Z,5.90
2022-10-09T08:31:25.756Z,4.03
2022-10-09T08:33:57.363Z,3.53
2022-10-09T08:36:25.205Z,3.85
2022-10-09T08:38:52.991Z,3.75
2022-10-09T08:41:48.909Z,3.67
2022-10-09T08:44:36.840Z,3.25
2022-10-09T08:47:19.567Z,3.60
2022-10-09T08:49:54.878Z,3.97
2022-10-09T08:52:24.955Z,3.47
2022-10-09T08:54:54.156Z,3.58
2022-10-09T08:57:23.496Z,5.28
2022-10-09T08:59:50.563Z,2.97
2022-10-09T09:02:35.736Z,3.38
2022-10-09T09:05:05.553Z,3.88
2022-10-09T09:08:00.257Z,3.00
2022-10-09T09:10:35.547Z,4.60
2022-10-09T09:13:14.487Z,2.63
2022-10-09T09:15:50.819Z,3.08
2022-10-09T09:18:17.841Z,2.88
2022-10-09T09:21:02.712Z,2.80
2022-10-09T09:23:34.457Z,2.33
2022-10-09T09:26:02.339Z,2.38
2022-10-09T09:28:33.422Z,2.78
2022-10-09T09:31:36.815Z,2.95
2022-10-09T09:34:03.597Z,2.83
2022-10-09T09:36:36.200Z,3.15
2022-10-09T09:40:07.836Z,2.08
2022-10-09T09:42:02.653Z,2.08
2022-10-09T09:44:31.971Z,2.10
2022-10-09T09:46:59.126Z,2.20
2022-10-09T09:49:28.978Z,2.33
2022-10-09T09:52:00.416Z,2.28
2022-10-09T09:54:30.354Z,2.05
2022-10-09T09:57:13.063Z,2.67
2022-10-09T09:59:44.136Z,1.80
2022-10-09T10:02:29.316Z,2.13
2022-10-09T10:05:01.152Z,2.47
2022-10-09T10:07:37.412Z,2.40
2022-10-09T10:10:10.082Z,1.75
2022-10-09T10:12:46.399Z,2.17
2022-10-09T10:15:27.868Z,2.28
2022-10-09T10:18:16.500Z,2.00
2022-10-09T10:20:49.543Z,1.83
2022-10-09T10:23:39.769Z,1.98
2022-10-09T10:26:24.890Z,1.63
2022-10-09T10:29:03.894Z,1.77
2022-10-09T10:31:49.387Z,2.00
2022-10-09T10:34:25.008Z,1.60
2022-10-09T10:37:13.769Z,1.52
2022-10-09T10:39:47.716Z,1.48
2022-10-09T10:42:24.648Z,1.85
2022-10-09T10:45:04.437Z,1.73
2022-10-09T10:47:37.265Z,1.92
2022-10-09T10:50:04.789Z,2.17
2022-10-09T10:53:07.797Z,2.03
2022-10-09T10:56:04.161Z,2.50
2022-10-09T10:59:06.990Z,1.38
2022-10-09T11:01:47.735Z,2.10
2022-10-09T11:04:42.541Z,1.50
2022-10-09T11:07:37.193Z,1.83
2022-10-09T11:10:20.698Z,2.13
2022-10-09T11:12:52.137Z,1.90
2022-10-09T11:15:23.842Z,1.52
2022-10-09T11:18:10.589Z,2.17
2022-10-09T11:21:14.544Z,2.28
2022-10-09T11:23:53.530Z,1.20
2022-10-09T11:26:28.954Z,1.70
2022-10-09T11:29:29.666Z,1.42
2022-10-09T11:32:04.281Z,1.83
2022-10-09T11:34:43.692Z,1.30
2022-10-09T11:37:28.728Z,1.35
2022-10-09T11:39:56.611Z,2.03
2022-10-09T11:42:25.847Z,1.80
2022-10-09T11:45:17.765Z,1.80
2022-10-09T11:48:01.254Z,2.30
2022-10-09T11:50:54.053Z,1.40
2022-10-09T11:53:24.946Z,1.75
2022-10-09T11:56:06.321Z,2.00
2022-10-09T11:58:33.778Z,1.48
2022-10-09T12:01:23.343Z,1.35
2022-10-09T12:04:08.309Z,1.00
2022-10-09T12:06:48.598Z,1.38
2022-10-09T12:09:32.846Z,1.50
2022-10-09T12:12:09.243Z,1.45
2022-10-09T12:14:38.568Z,1.65
2022-10-09T12:17:34.399Z,1.10
2022-10-09T12:20:16.666Z,1.48
2022-10-09T12:23:07.417Z,1.45
2022-10-09T12:25:46.022Z,1.63
2022-10-09T12:28:42.450Z,1.08
2022-10-09T12:31:20.050Z,1.30
2022-10-09T12:33:56.331Z,1.10
2022-10-09T12:36:29.515Z,1.17
2022-10-09T12:38:56.580Z,1.33
2022-10-09T12:41:28.215Z,1.23
2022-10-09T12:43:57.602Z,1.48
2022-10-09T12:46:36.138Z,1.50
2022-10-09T12:51:33.751Z,1.75
2022-10-09T12:56:38.666Z,2.35
2022-10-09T12:59:07.297Z,1.42
2022-10-09T13:01:35.123Z,1.17
2022-10-09T13:04:05.033Z,1.67
2022-10-09T13:06:52.854Z,1.70
2022-10-09T13:09:34.741Z,1.40
2022-10-09T13:12:26.349Z,1.50
2022-10-09T13:15:00.805Z,1.38
2022-10-09T13:17:33.739Z,1.35
2022-10-09T13:20:21.985Z,1.77
2022-10-09T13:22:58.035Z,1.67
2022-10-09T13:25:33.243Z,1.98
2022-10-09T13:28:00.087Z,1.08
2022-10-09T13:30:28.685Z,1.90
2022-10-09T13:35:22.474Z,1.50
2022-10-09T13:37:49.941Z,1.50
2022-10-09T13:40:20.909Z,1.67
2022-10-09T13:42:53.340Z,1.25
2022-10-09T13:45:20.993Z,1.77
2022-10-09T13:47:48.052Z,2.33
2022-10-09T13:50:15.597Z,2.85
2022-10-09T13:52:42.729Z,2.55
2022-10-09T13:55:10.255Z,2.40
2022-10-09T13:57:37.010Z,2.28
2022-10-09T14:00:06.221Z,2.13
2022-10-09T14:02:39.031Z,1.67
2022-10-09T14:05:06.283Z,2.40
2022-10-09T14:07:33.100Z,2.55
2022-10-09T14:09:59.920Z,3.10
2022-10-09T14:12:27.050Z,3.30
2022-10-09T14:14:54.629Z,2.30
2022-10-09T14:17:24.100Z,2.22
2022-10-09T14:19:55.162Z,2.58
2022-10-09T14:22:22.000Z,2.63
2022-10-09T14:24:48.817Z,2.60
2022-10-09T14:27:16.901Z,3.40
2022-10-09T14:29:43.944Z,4.68
2022-10-09T14:32:10.809Z,3.97
2022-10-09T14:34:37.587Z,3.38
2022-10-09T14:37:13.598Z,3.03
2022-10-09T14:39:46.933Z,3.20
2022-10-09T14:42:13.732Z,2.93
2022-10-09T14:44:40.890Z,3.30
2022-10-09T14:47:07.716Z,4.20
2022-10-09T14:49:34.556Z,4.53
2022-10-09T14:52:01.458Z,4.60
2022-10-09T14:54:28.277Z,4.88
2022-10-09T14:56:55.067Z,4.80
2022-10-09T14:59:21.860Z,5.40
2022-10-09T15:01:48.795Z,5.70
2022-10-09T15:04:16.124Z,5.13
2022-10-09T15:06:43.064Z,5.22
2022-10-09T15:09:09.892Z,6.65
2022-10-09T15:11:37.380Z,7.00
2022-10-09T15:14:08.319Z,6.28
2022-10-09T15:16:35.559Z,5.82
2022-10-09T15:19:02.982Z,6.60
2022-10-09T15:21:32.061Z,6.60
2022-10-09T15:24:00.525Z,7.65
2022-10-09T15:26:29.412Z,8.10
2022-10-09T15:31:30.483Z,8.95
2022-10-09T15:33:58.841Z,9.30
2022-10-09T15:36:26.017Z,8.43
2022-10-09T15:38:53.031Z,9.32
2022-10-09T15:41:29.187Z,10.57
2022-10-09T15:43:59.258Z,10.75
2022-10-09T15:46:26.715Z,11.82
2022-10-09T15:48:54.355Z,11.65
2022-10-09T15:51:21.586Z,10.82
2022-10-09T15:53:50.235Z,14.27
2022-10-09T15:56:23.308Z,15.65
2022-10-09T15:58:51.522Z,16.45
2022-10-09T16:01:19.310Z,16.40
2022-10-09T16:03:46.661Z,16.92
2022-10-09T16:06:18.013Z,15.57
2022-10-09T16:08:46.315Z,16.55
2022-10-09T16:11:14.879Z,17.05
2022-10-09T16:13:44.322Z,17.63
2022-10-09T16:16:15.627Z,19.08
2022-10-09T16:18:45.744Z,18.35
2022-10-09T16:21:16.389Z,17.13
2022-10-09T16:23:44.879Z,15.68
2022-10-09T16:26:14.483Z,18.17
2022-10-09T16:28:41.644Z,18.95
2022-10-09T16:31:08.775Z,18.70
2022-10-09T16:33:35.612Z,19.40
2022-10-09T16:36:10.757Z,20.90
2022-10-09T16:38:38.576Z,20.25
2022-10-09T16:41:11.081Z,20.77
2022-10-09T16:43:39.332Z,25.13
2022-10-09T16:46:24.324Z,22.25
2022-10-09T16:48:52.813Z,24.13
2022-10-09T16:51:25.505Z,23.33
2022-10-09T16:53:54.175Z,22.88
2022-10-09T16:56:27.226Z,21.75
2022-10-09T16:58:58.702Z,20.80
2022-10-09T17:01:26.713Z,21.90
2022-10-09T17:03:55.256Z,21.95
2022-10-09T17:06:25.451Z,20.35
2022-10-09T17:08:58.312Z,18.13
2022-10-09T17:11:27.248Z,18.05
2022-10-09T17:13:57.937Z,20.20
2022-10-09T17:16:27.633Z,20.67
2022-10-09T17:18:54.572Z,22.17
2022-10-09T17:21:21.530Z,21.63
2022-10-09T17:23:52.399Z,24.95
2022-10-09T17:26:19.735Z,22.85
2022-10-09T17:28:47.842Z,23.88
2022-10-09T17:31:17.993Z,23.98
2022-10-09T17:33:48.436Z,24.08
2022-10-09T17:36:20.800Z,23.15
2022-10-09T17:38:48.908Z,19.88
2022-10-09T17:41:17.917Z,18.77
2022-10-09T17:43:45.456Z,20.30
2022-10-09T17:46:14.915Z,19.13
2022-10-09T17:48:45.326Z,19.33
2022-10-09T17:51:21.283Z,19.25
2022-10-09T17:53:49.026Z,19.45
2022-10-09T17:56:16.050Z,19.75
2022-10-09T17:58:44.683Z,19.92
2022-10-09T18:01:12.548Z,20.25
2022-10-09T18:03:39.428Z,19.48
2022-10-09T18:06:08.732Z,19.55
2022-10-09T18:08:36.247Z,21.20
2022-10-09T18:11:16.088Z,20.00
2022-10-09T18:13:44.058Z,21.13
2022-10-09T18:16:14.572Z,22.00
2022-10-09T18:18:42.357Z,22.08
2022-10-09T18:21:13.142Z,20.75
2022-10-09T18:23:40.744Z,17.42
2022-10-09T18:26:12.863Z,17.73
2022-10-09T18:28:40.531Z,18.45
2022-10-09T18:31:11.515Z,18.77
2022-10-09T18:33:38.480Z,19.42
2022-10-09T18:36:20.242Z,21.60
2022-10-09T18:38:50.832Z,21.00
2022-10-09T18:41:19.328Z,18.80
2022-10-09T18:43:47.732Z,19.40
2022-10-09T18:46:16.803Z,20.05
2022-10-09T18:51:16.587Z,19.90
2022-10-09T18:53:47.809Z,21.90
2022-10-09T18:56:17.831Z,20.23
2022-10-09T18:58:44.801Z,21.42
2022-10-09T19:01:12.275Z,22.20
2022-10-09T19:03:39.106Z,22.25
2022-10-09T19:06:06.237Z,21.15
2022-10-09T19:08:34.655Z,21.42
2022-10-09T19:11:01.482Z,21.55
2022-10-09T19:13:28.434Z,23.73
2022-10-09T19:15:58.835Z,23.08
2022-10-09T19:18:26.696Z,24.63
2022-10-09T19:20:53.705Z,24.38
2022-10-09T19:23:20.543Z,23.45
2022-10-09T19:25:52.153Z,25.02
2022-10-09T19:28:20.948Z,25.02
2022-10-09T19:30:47.846Z,26.15
2022-10-09T19:33:15.103Z,23.38
2022-10-09T19:35:52.891Z,26.77
2022-10-09T19:38:21.013Z,24.70
2022-10-09T19:40:48.849Z,24.27
2022-10-09T19:43:17.375Z,23.60
2022-10-09T19:45:45.313Z,25.92
2022-10-09T19:48:12.213Z,24.08
2022-10-09T19:50:44.037Z,26.52
2022-10-09T19:53:12.449Z,26.73
2022-10-09T19:55:39.406Z,25.65
2022-10-09T19:58:06.879Z,55.17
2022-10-09T20:00:33.877Z,32.25
2022-10-09T20:03:00.830Z,25.75
2022-10-09T20:05:27.725Z,28.20
2022-10-09T20:07:54.472Z,28.92
2022-10-09T20:10:21.330Z,29.75
2022-10-09T20:12:48.565Z,25.02
2022-10-09T20:15:15.593Z,26.98
2022-10-09T20:17:42.460Z,25.60
2022-10-09T20:20:09.617Z,27.65
2022-10-09T20:22:36.468Z,26.90
2022-10-09T20:25:04.475Z,26.05
2022-10-09T20:27:31.619Z,27.35
2022-10-09T20:29:58.652Z,29.65
2022-10-09T20:32:25.691Z,28.38
2022-10-09T20:34:52.539Z,28.80
2022-10-09T20:37:19.444Z,29.67
2022-10-09T20:39:46.359Z,28.30
2022-10-09T20:42:13.467Z,30.77
2022-10-09T20:44:40.374Z,29.98
2022-10-09T20:47:07.250Z,28.17
2022-10-09T20:49:34.087Z,28.90
2022-10-09T20:52:01.105Z,27.08
2022-10-09T20:54:27.973Z,25.38
2022-10-09T20:56:54.783Z,24.23
2022-10-09T20:59:21.685Z,25.83
2022-10-09T21:01:48.708Z,26.73
2022-10-09T21:04:15.666Z,26.13
2022-10-09T21:06:42.956Z,24.73
2022-10-09T21:09:09.734Z,25.40
2022-10-09T21:11:37.285Z,26.55
2022-10-09T21:14:04.085Z,25.30
2022-10-09T21:16:30.891Z,26.55
2022-10-09T21:19:01.092Z,24.95
2022-10-09T21:21:29.302Z,26.58
2022-10-09T21:23:57.563Z,27.83
2022-10-09T21:26:25.762Z,25.37
2022-10-09T21:28:59.663Z,26.30
2022-10-09T21:31:30.233Z,25.45
2022-10-09T21:33:58.103Z,24.90
2022-10-09T21:36:30.721Z,25.63
2022-10-09T21:38:58.073Z,24.90
2022-10-09T21:41:25.392Z,26.88
2022-10-09T21:43:52.247Z,20.80
2022-10-09T21:46:19.401Z,25.38
2022-10-09T21:48:46.170Z,23.38
2022-10-09T21:51:13.006Z,23.80
2022-10-09T21:53:39.968Z,20.88
2022-10-09T21:56:07.338Z,24.83
2022-10-09T21:58:34.169Z,27.92
2022-10-09T22:01:02.855Z,25.60
2022-10-09T22:03:32.980Z,27.75
2022-10-09T22:06:00.473Z,25.77
2022-10-09T22:08:27.671Z,30.02
2022-10-09T22:10:54.442Z,25.13
2022-10-09T22:13:22.068Z,25.52
2022-10-09T22:15:51.297Z,28.52
2022-10-09T22:18:18.849Z,26.67
2022-10-09T22:20:49.223Z,27.52
2022-10-09T22:23:20.054Z,24.88
2022-10-09T22:25:58.264Z,24.67
2022-10-09T22:28:25.166Z,25.73
2022-10-09T22:31:08.452Z,24.73
2022-10-09T22:33:36.024Z,25.48
2022-10-09T22:36:16.056Z,26.70
2022-10-09T22:38:47.448Z,28.05
2022-10-09T22:41:20.058Z,28.50
2022-10-09T22:43:50.100Z,26.58
2022-10-09T22:46:23.260Z,26.92
2022-10-09T22:48:51.011Z,26.77
2022-10-09T22:51:19.587Z,26.15
2022-10-09T22:53:47.044Z,26.75
2022-10-09T22:56:17.716Z,28.65
2022-10-09T22:58:45.827Z,32.33
2022-10-09T23:01:16.233Z,29.67
2022-10-09T23:03:43.540Z,26.65
2022-10-09T23:06:15.687Z,30.25
2022-10-09T23:08:44.161Z,29.92
2022-10-09T23:11:12.126Z,29.65
2022-10-09T23:13:39.274Z,25.20
2022-10-09T23:16:09.594Z,27.35
2022-10-09T23:18:37.096Z,24.15
2022-10-09T23:21:09.888Z,25.60
2022-10-09T23:23:36.797Z,22.73
2022-10-09T23:26:09.316Z,23.90
2022-10-09T23:28:36.812Z,23.92
2022-10-09T23:31:14.318Z,22.35
2022-10-09T23:33:43.863Z,23.55
2022-10-09T23:36:12.916Z,35.92
2022-10-09T23:38:40.292Z,29.50
2022-10-09T23:41:09.544Z,25.15
2022-10-09T23:46:06.421Z,24.20
2022-10-09T23:48:34.078Z,24.45
2022-10-09T23:51:01.080Z,25.30
2022-10-09T23:53:28.433Z,24.80
2022-10-09T23:55:55.373Z,25.75
2022-10-09T23:58:23.118Z,25.42
